createdAt,value
2022-10-22T00:01:16.490Z,100618.50
2022-10-22T00:03:44.655Z,100622.97
2022-10-22T00:06:12.744Z,100626.59
2022-10-22T00:08:40.905Z,100635.72
2022-10-22T00:11:10.975Z,100629.19
2022-10-22T00:13:39.258Z,100620.91
2022-10-22T00:16:09.081Z,100622.66
2022-10-22T00:18:37.572Z,100627.28
2022-10-22T00:21:07.117Z,100632.81
2022-10-22T00:23:35.508Z,100628.31
2022-10-22T00:26:03.436Z,100631.22
2022-10-22T00:28:31.441Z,100632.97
2022-10-22T00:31:00.055Z,100630.22
2022-10-22T00:33:30.743Z,100636.41
2022-10-22T00:35:59.256Z,100632.97
2022-10-22T00:38:27.597Z,100630.38
2022-10-22T00:40:55.748Z,100629.50
2022-10-22T00:43:23.735Z,100627.59
2022-10-22T00:45:51.716Z,100628.47
2022-10-22T00:48:24.091Z,100627.44
2022-10-22T00:50:56.491Z,100628.47
2022-10-22T00:53:28.497Z,100633.97
2022-10-22T00:55:57.106Z,100625.88
2022-10-22T00:58:30.127Z,100632.81
2022-10-22T01:00:58.960Z,100629.34
2022-10-22T01:03:26.963Z,100625.56
2022-10-22T01:05:59.641Z,100619.03
2022-10-22T01:08:36.364Z,100633.81
2022-10-22T01:11:14.527Z,100630.03
2022-10-22T01:13:54.673Z,100636.41
2022-10-22T01:16:31.906Z,100630.91
2022-10-22T01:19:11.251Z,100625.41
2022-10-22T01:21:45.733Z,100624.38
2022-10-22T01:24:36.753Z,100621.63
2022-10-22T01:27:25.459Z,100613.38
2022-10-22T01:29:59.374Z,100613.19
2022-10-22T01:32:29.460Z,100615.25
2022-10-22T01:35:02.761Z,100608.53
2022-10-22T01:37:33.128Z,100604.91
2022-10-22T01:40:02.958Z,100594.75
2022-10-22T01:42:30.900Z,100601.28
2022-10-22T01:45:00.200Z,100616.50
2022-10-22T01:47:44.415Z,100596.38
2022-10-22T01:50:29.178Z,100598.09
2022-10-22T01:53:08.307Z,100603.59
2022-10-22T01:55:44.921Z,100593.44
2022-10-22T01:58:21.394Z,100598.97
2022-10-22T02:00:59.360Z,100598.97
2022-10-22T02:03:34.102Z,100605.50
2022-10-22T02:06:10.070Z,100602.59
2022-10-22T02:08:38.757Z,100600.13
2022-10-22T02:11:07.420Z,100597.22
2022-10-22T02:13:40.760Z,100597.06
2022-10-22T02:16:13.653Z,100607.22
2022-10-22T02:18:46.172Z,100598.97
2022-10-22T02:21:14.733Z,100602.91
2022-10-22T02:23:42.870Z,100601.50
2022-10-22T02:26:17.643Z,100612.72
2022-10-22T02:28:51.195Z,100613.75
2022-10-22T02:31:24.632Z,100612.72
2022-10-22T02:33:56.146Z,100610.13
2022-10-22T02:36:25.947Z,100613.88
2022-10-22T02:38:55.427Z,100609.13
2022-10-22T02:41:24.574Z,100611.88
2022-10-22T02:43:55.850Z,100610.84
2022-10-22T02:46:26.794Z,100616.34
2022-10-22T02:48:54.778Z,100619.25
2022-10-22T02:51:22.817Z,100624.78
2022-10-22T02:53:50.844Z,100619.25
2022-10-22T02:56:19.015Z,100621.84
2022-10-22T02:58:46.945Z,100619.97
2022-10-22T03:01:16.180Z,100620.84
2022-10-22T03:03:45.735Z,100627.00
2022-10-22T03:06:14.071Z,100624.44
2022-10-22T03:08:42.284Z,100617.06
2022-10-22T03:11:10.373Z,100617.91
2022-10-22T03:13:39.028Z,100615.84
2022-10-22T03:16:07.920Z,100626.84
2022-10-22T03:18:36.533Z,100619.63
2022-10-22T03:21:11.449Z,100616.69
2022-10-22T03:23:41.470Z,100624.09
2022-10-22T03:26:10.308Z,100626.19
2022-10-22T03:28:39.279Z,100620.84
2022-10-22T03:31:07.604Z,100625.47
2022-10-22T03:33:35.465Z,100625.47
2022-10-22T03:36:03.649Z,100628.38
2022-10-22T03:38:33.006Z,100633.72
2022-10-22T03:41:00.930Z,100637.50
2022-10-22T03:43:29.063Z,100633.03
2022-10-22T03:45:57.114Z,100631.25
2022-10-22T03:48:25.407Z,100639.41
2022-10-22T03:50:53.359Z,100633.03
2022-10-22T03:53:21.374Z,100632.16
2022-10-22T03:55:50.803Z,100633.91
2022-10-22T03:58:18.755Z,100633.16
2022-10-22T04:00:46.802Z,100636.94
2022-10-22T04:03:14.777Z,100636.06
2022-10-22T04:05:42.726Z,100648.97
2022-10-22T04:08:10.720Z,100655.34
2022-10-22T04:10:38.836Z,100651.91
2022-10-22T04:13:08.483Z,100662.56
2022-10-22T04:15:36.492Z,100659.13
2022-10-22T04:18:04.613Z,100666.34
2022-10-22T04:20:32.511Z,100662.75
2022-10-22T04:23:00.431Z,100663.59
2022-10-22T04:25:28.477Z,100665.34
2022-10-22T04:27:56.429Z,100664.47
2022-10-22T04:30:25.746Z,100671.59
2022-10-22T04:32:53.802Z,100674.34
2022-10-22T04:35:21.879Z,100679.84
2022-10-22T04:37:49.744Z,100673.47
2022-10-22T04:40:17.787Z,100678.97
2022-10-22T04:42:45.678Z,100688.38
2022-10-22T04:45:15.623Z,100680.13
2022-10-22T04:47:44.893Z,100693.88
2022-10-22T04:50:12.821Z,100686.84
2022-10-22T04:52:40.689Z,100695.09
2022-10-22T04:55:09.275Z,100684.25
2022-10-22T04:57:37.279Z,100692.50
2022-10-22T05:00:06.939Z,100692.50
2022-10-22T05:02:35.038Z,100678.91
2022-10-22T05:05:05.405Z,100696.13
2022-10-22T05:07:33.300Z,100697.47
2022-10-22T05:10:02.309Z,100697.47
2022-10-22T05:12:30.991Z,100702.09
2022-10-22T05:14:58.867Z,100710.38
2022-10-22T05:17:30.381Z,100707.81
2022-10-22T05:19:58.457Z,100705.88
2022-10-22T05:22:27.817Z,100707.81
2022-10-22T05:24:55.818Z,100722.59
2022-10-22T05:27:23.806Z,100709.84
2022-10-22T05:29:52.029Z,100720.84
2022-10-22T05:32:19.912Z,100713.63
2022-10-22T05:34:48.035Z,100721.00
2022-10-22T05:37:15.894Z,100728.41
2022-10-22T05:39:45.112Z,100727.38
2022-10-22T05:42:13.029Z,100728.56
2022-10-22T05:44:40.944Z,100732.34
2022-10-22T05:47:10.104Z,100731.47
2022-10-22T05:49:38.040Z,100736.09
2022-10-22T05:52:06.149Z,100738.03
2022-10-22T05:54:34.199Z,100739.06
2022-10-22T05:57:03.482Z,100744.56
2022-10-22T05:59:31.571Z,100742.13
2022-10-22T06:01:59.557Z,100752.41
2022-10-22T06:04:27.696Z,100751.53
2022-10-22T06:06:55.672Z,100754.28
2022-10-22T06:09:27.540Z,100757.91
2022-10-22T06:11:56.538Z,100751.03
2022-10-22T06:14:27.013Z,100756.19
2022-10-22T06:16:55.847Z,100762.75
2022-10-22T06:19:25.691Z,100765.50
2022-10-22T06:21:53.993Z,100768.41
2022-10-22T06:24:22.217Z,100766.50
2022-10-22T06:26:51.526Z,100774.59
2022-10-22T06:29:19.587Z,100777.53
2022-10-22T06:31:49.131Z,100785.44
2022-10-22T06:34:18.830Z,100795.59
2022-10-22T06:36:47.116Z,100800.06
2022-10-22T06:39:16.866Z,100810.78
2022-10-22T06:41:44.809Z,100796.16
2022-10-22T06:44:16.283Z,100803.03
2022-10-22T06:46:44.588Z,100806.50
2022-10-22T06:49:26.817Z,100817.06
2022-10-22T06:52:01.562Z,100821.34
2022-10-22T06:54:29.422Z,100821.19
2022-10-22T06:56:57.199Z,100830.19
2022-10-22T06:59:25.121Z,100838.97
2022-10-22T07:01:53.054Z,100833.31
2022-10-22T07:04:20.855Z,100837.66
2022-10-22T07:06:48.589Z,100835.63
2022-10-22T07:11:47.030Z,100843.78
2022-10-22T07:14:15.875Z,100840.53
2022-10-22T07:16:45.670Z,100856.41
2022-10-22T07:19:14.282Z,100858.50
2022-10-22T07:21:42.321Z,100860.66
2022-10-22T07:24:10.436Z,100869.13
2022-10-22T07:27:00.982Z,100865.72
2022-10-22T07:29:29.740Z,100865.03
2022-10-22T07:31:57.774Z,100876.31
2022-10-22T07:34:25.796Z,100868.25
2022-10-22T07:36:53.719Z,100870.34
2022-10-22T07:39:21.766Z,100886.56
2022-10-22T07:41:49.737Z,100884.31
2022-10-22T07:44:19.257Z,100891.25
2022-10-22T07:46:48.925Z,100884.72
2022-10-22T07:49:17.151Z,100889.34
2022-10-22T07:51:45.164Z,100904.00
2022-10-22T07:54:13.218Z,100896.59
2022-10-22T07:56:41.112Z,100909.53
2022-10-22T07:59:09.485Z,100914.91
2022-10-22T08:01:38.936Z,100904.72
2022-10-22T08:04:08.294Z,100914.03
2022-10-22T08:06:38.629Z,100915.91
2022-10-22T08:09:06.706Z,100920.56
2022-10-22T08:11:34.885Z,100918.66
2022-10-22T08:14:03.228Z,100932.63
2022-10-22T08:16:31.307Z,100937.25
2022-10-22T08:19:00.766Z,100930.72
2022-10-22T08:21:28.710Z,100938.28
2022-10-22T08:23:56.717Z,100939.31
2022-10-22T08:26:24.901Z,100944.97
2022-10-22T08:28:53.370Z,100943.25
2022-10-22T08:31:21.294Z,100953.44
2022-10-22T08:33:49.075Z,100954.47
2022-10-22T08:36:18.389Z,100954.47
2022-10-22T08:38:46.170Z,100967.53
2022-10-22T08:41:16.990Z,100964.78
2022-10-22T08:44:03.052Z,100968.41
2022-10-22T08:46:45.929Z,100966.66
2022-10-22T08:49:19.551Z,100969.75
2022-10-22T08:51:48.953Z,100969.59
2022-10-22T08:54:23.820Z,100978.56
2022-10-22T08:57:03.433Z,100981.31
2022-10-22T08:59:39.550Z,100980.47
2022-10-22T09:02:21.126Z,100978.41
2022-10-22T09:04:54.846Z,100980.16
2022-10-22T09:07:25.403Z,100991.84
2022-10-22T09:09:56.232Z,100995.31
2022-10-22T09:12:26.253Z,100985.16
2022-10-22T09:14:54.045Z,100994.31
2022-10-22T09:17:33.829Z,101001.25
2022-10-22T09:20:10.265Z,100994.88
2022-10-22T09:22:47.478Z,100995.56
2022-10-22T09:25:22.308Z,101001.78
2022-10-22T09:27:52.532Z,100996.28
2022-10-22T09:30:22.181Z,100995.25
2022-10-22T09:32:52.893Z,101004.25
2022-10-22T09:35:24.498Z,100996.84
2022-10-22T09:37:57.086Z,101005.78
2022-10-22T09:40:25.188Z,101007.00
2022-10-22T09:42:52.962Z,101013.19
2022-10-22T09:45:22.787Z,101012.88
2022-10-22T09:48:01.575Z,101013.75
2022-10-22T09:50:39.410Z,101016.34
2022-10-22T09:53:14.997Z,101018.94
2022-10-22T09:55:44.480Z,101014.47
2022-10-22T09:58:14.973Z,101028.97
2022-10-22T10:00:47.285Z,101028.78
2022-10-22T10:03:20.988Z,101018.59
2022-10-22T10:05:52.531Z,101028.78
2022-10-22T10:08:22.033Z,101040.50
2022-10-22T10:10:52.644Z,101045.00
2022-10-22T10:13:39.417Z,101043.13
2022-10-22T10:16:16.836Z,101046.75
2022-10-22T10:18:57.481Z,101049.34
2022-10-22T10:21:32.287Z,101055.72
2022-10-22T10:24:09.892Z,101057.28
2022-10-22T10:26:45.518Z,101058.16
2022-10-22T10:29:23.453Z,101054.22
2022-10-22T10:32:07.219Z,101060.44
2022-10-22T10:34:46.162Z,101066.63
2022-10-22T10:37:23.955Z,101067.34
2022-10-22T10:40:25.140Z,101077.50
2022-10-22T10:43:01.105Z,101068.22
2022-10-22T10:45:38.090Z,101077.56
2022-10-22T10:48:24.269Z,101082.06
2022-10-22T10:51:03.894Z,101084.66
2022-10-22T10:53:53.835Z,101082.78
2022-10-22T10:56:39.085Z,101075.34
2022-10-22T10:59:18.859Z,101082.44
2022-10-22T11:02:00.672Z,101073.13
2022-10-22T11:04:48.996Z,101092.63
2022-10-22T11:07:34.168Z,101092.44
2022-10-22T11:10:10.370Z,101086.91
2022-10-22T11:12:45.933Z,101090.38
2022-10-22T11:15:23.520Z,101090.38
2022-10-22T11:17:55.656Z,101095.91
2022-10-22T11:20:29.412Z,101095.03
2022-10-22T11:23:21.295Z,101104.03
2022-10-22T11:25:51.121Z,101092.63
2022-10-22T11:28:24.780Z,101102.28
2022-10-22T11:31:01.233Z,101104.03
2022-10-22T11:33:37.626Z,101103.16
2022-10-22T11:36:08.596Z,101102.28
2022-10-22T11:38:36.956Z,101095.19
2022-10-22T11:41:08.382Z,101102.28
2022-10-22T11:43:57.111Z,101095.19
2022-10-22T11:46:39.171Z,101095.03
2022-10-22T11:49:19.589Z,101094.16
2022-10-22T11:51:48.040Z,101095.19
2022-10-22T11:54:42.758Z,101091.56
2022-10-22T11:57:24.335Z,101094.00
2022-10-22T11:59:57.488Z,101081.94
2022-10-22T12:02:44.313Z,101088.19
2022-10-22T12:05:37.661Z,101085.56
2022-10-22T12:08:17.773Z,101080.41
2022-10-22T12:10:59.921Z,101075.59
2022-10-22T12:13:31.242Z,101070.94
2022-10-22T12:16:04.459Z,101074.94
2022-10-22T12:18:45.430Z,101073.75
2022-10-22T12:21:14.909Z,101079.28
2022-10-22T12:23:43.172Z,101086.38
2022-10-22T12:26:24.722Z,101079.47
2022-10-22T12:28:52.844Z,101077.59
2022-10-22T12:31:22.101Z,101073.63
2022-10-22T12:33:56.421Z,101067.25
2022-10-22T12:36:26.437Z,101078.13
2022-10-22T12:38:54.579Z,101071.41
2022-10-22T12:41:23.317Z,101068.34
2022-10-22T12:44:00.174Z,101061.78
2022-10-22T12:46:31.369Z,101060.75
2022-10-22T12:49:01.554Z,101071.66
2022-10-22T12:54:03.130Z,101065.06
2022-10-22T12:56:34.526Z,101067.81
2022-10-22T12:59:04.928Z,101071.47
2022-10-22T13:01:38.456Z,101063.00
2022-10-22T13:04:19.780Z,101060.25
2022-10-22T13:06:49.108Z,101063.00
2022-10-22T13:09:23.836Z,101070.09
2022-10-22T13:11:58.128Z,101065.44
2022-10-22T13:14:30.098Z,101066.16
2022-10-22T13:17:10.619Z,101066.16
2022-10-22T13:19:50.801Z,101068.56
2022-10-22T13:22:31.099Z,101069.44
2022-10-22T13:25:00.736Z,101074.09
2022-10-22T13:27:29.588Z,101077.41
2022-10-22T13:30:01.932Z,101068.09
2022-10-22T13:32:34.499Z,101066.19
2022-10-22T13:35:03.474Z,101072.59
2022-10-22T13:37:35.542Z,101069.63
2022-10-22T13:40:05.641Z,101068.59
2022-10-22T13:42:36.723Z,101072.75
2022-10-22T13:45:04.830Z,101066.22
2022-10-22T13:47:34.566Z,101075.16
2022-10-22T13:50:04.383Z,101068.78
2022-10-22T13:52:39.637Z,101074.84
2022-10-22T13:55:15.881Z,101075.88
2022-10-22T13:57:43.706Z,101073.28
2022-10-22T14:00:14.740Z,101075.72
2022-10-22T14:02:45.787Z,101084.16
2022-10-22T14:05:13.683Z,101081.25
2022-10-22T14:07:41.759Z,101082.09
2022-10-22T14:10:18.789Z,101081.78
2022-10-22T14:12:52.285Z,101075.56
2022-10-22T14:15:24.299Z,101076.25
2022-10-22T14:17:57.281Z,101061.38
2022-10-22T14:20:28.763Z,101069.66
2022-10-22T14:22:57.521Z,101066.03
2022-10-22T14:25:27.044Z,101053.78
2022-10-22T14:27:54.925Z,101051.03
2022-10-22T14:30:24.537Z,101055.38
2022-10-22T14:32:53.966Z,101045.19
2022-10-22T14:35:23.567Z,101064.16
2022-10-22T14:37:51.731Z,101061.25
2022-10-22T14:40:21.661Z,101064.53
2022-10-22T14:42:50.238Z,101065.41
2022-10-22T14:45:21.004Z,101065.91
2022-10-22T14:47:49.550Z,101064.03
2022-10-22T14:50:20.526Z,101071.13
2022-10-22T14:52:49.121Z,101062.81
2022-10-22T14:55:19.045Z,101070.09
2022-10-22T14:57:47.555Z,101062.81
2022-10-22T15:00:17.734Z,101066.28
2022-10-22T15:02:46.237Z,101069.06
2022-10-22T15:05:14.373Z,101066.28
2022-10-22T15:07:43.834Z,101069.91
2022-10-22T15:10:12.007Z,101066.28
2022-10-22T15:12:40.076Z,101076.31
2022-10-22T15:15:09.121Z,101068.88
2022-10-22T15:17:37.210Z,101074.59
2022-10-22T15:20:06.572Z,101076.31
2022-10-22T15:22:36.178Z,101076.47
2022-10-22T15:25:08.628Z,101070.78
2022-10-22T15:27:37.116Z,101080.44
2022-10-22T15:30:06.525Z,101071.97
2022-10-22T15:32:34.714Z,101082.16
2022-10-22T15:35:03.224Z,101075.94
2022-10-22T15:37:31.805Z,101078.72
2022-10-22T15:40:00.472Z,101084.41
2022-10-22T15:42:29.632Z,101088.91
2022-10-22T15:44:59.708Z,101100.13
2022-10-22T15:47:29.618Z,101100.47
2022-10-22T15:49:58.430Z,101098.56
2022-10-22T15:52:26.296Z,101097.00
2022-10-22T15:54:54.414Z,101098.03
2022-10-22T15:57:22.185Z,101099.06
2022-10-22T15:59:51.885Z,101102.00
2022-10-22T16:02:19.889Z,101101.31
2022-10-22T16:04:47.897Z,101103.22
2022-10-22T16:07:15.714Z,101107.00
2022-10-22T16:09:43.532Z,101104.56
2022-10-22T16:12:13.107Z,101103.69
2022-10-22T16:14:43.357Z,101104.91
2022-10-22T16:17:13.079Z,101101.97
2022-10-22T16:19:40.858Z,101103.19
2022-10-22T16:22:10.168Z,101101.44
2022-10-22T16:24:40.298Z,101105.25
2022-10-22T16:27:08.721Z,101105.41
2022-10-22T16:29:38.272Z,101109.03
2022-10-22T16:32:06.499Z,101109.38
2022-10-22T16:34:35.646Z,101103.88
2022-10-22T16:37:04.322Z,101096.75
2022-10-22T16:39:32.106Z,101094.16
2022-10-22T16:41:59.845Z,101091.56
2022-10-22T16:44:27.714Z,101091.72
2022-10-22T16:46:55.505Z,101096.56
2022-10-22T16:49:23.341Z,101104.00
2022-10-22T16:51:52.572Z,101109.53
2022-10-22T16:54:21.749Z,101111.72
2022-10-22T16:56:49.625Z,101115.53
2022-10-22T16:59:17.686Z,101111.91
2022-10-22T17:01:45.495Z,101120.34
2022-10-22T17:04:13.252Z,101115.00
2022-10-22T17:06:41.135Z,101123.44
2022-10-22T17:09:10.797Z,101120.53
2022-10-22T17:11:41.239Z,101118.09
2022-10-22T17:14:11.965Z,101124.78
2022-10-22T17:16:39.701Z,101120.28
2022-10-22T17:19:07.597Z,101126.00
2022-10-22T17:21:35.432Z,101127.19
2022-10-22T17:24:03.298Z,101130.13
2022-10-22T17:26:33.217Z,101132.88
2022-10-22T17:29:01.552Z,101127.84
2022-10-22T17:31:32.506Z,101126.25
2022-10-22T17:34:00.870Z,101132.97
2022-10-22T17:36:33.344Z,101136.06
2022-10-22T17:39:06.350Z,101138.13
2022-10-22T17:41:37.858Z,101137.25
2022-10-22T17:44:09.026Z,101142.22
2022-10-22T17:46:37.178Z,101137.03
2022-10-22T17:49:07.967Z,101138.94
2022-10-22T17:51:35.829Z,101136.50
2022-10-22T17:54:07.261Z,101142.34
2022-10-22T17:56:40.266Z,101144.25
2022-10-22T17:59:08.429Z,101146.47
2022-10-22T18:01:39.393Z,101142.97
2022-10-22T18:04:09.599Z,101145.06
2022-10-22T18:06:37.684Z,101141.75
2022-10-22T18:09:06.290Z,101137.59
2022-10-22T18:11:36.495Z,101141.53
2022-10-22T18:14:06.025Z,101138.94
2022-10-22T18:16:34.027Z,101136.66
2022-10-22T18:19:02.005Z,101145.09
2022-10-22T18:21:31.208Z,101144.38
2022-10-22T18:24:00.106Z,101146.44
2022-10-22T18:26:28.365Z,101137.44
2022-10-22T18:28:56.259Z,101144.16
2022-10-22T18:31:27.893Z,101145.91
2022-10-22T18:33:56.492Z,101142.59
2022-10-22T18:36:27.292Z,101148.66
2022-10-22T18:38:57.413Z,101137.78
2022-10-22T18:41:27.308Z,101138.81
2022-10-22T18:44:00.909Z,101137.22
2022-10-22T18:46:31.916Z,101134.47
2022-10-22T18:49:00.239Z,101139.59
2022-10-22T18:51:31.006Z,101136.13
2022-10-22T18:54:05.660Z,101141.28
2022-10-22T18:56:41.921Z,101136.94
2022-10-22T18:59:16.370Z,101142.44
2022-10-22T19:01:45.722Z,101140.16
2022-10-22T19:04:14.025Z,101131.47
2022-10-22T19:06:45.820Z,101128.84
2022-10-22T19:09:14.767Z,101130.38
2022-10-22T19:11:43.737Z,101134.16
2022-10-22T19:14:11.694Z,101126.38
2022-10-22T19:16:39.459Z,101119.25
2022-10-22T19:19:09.234Z,101117.53
2022-10-22T19:21:38.446Z,101123.38
2022-10-22T19:24:07.491Z,101122.81
2022-10-22T19:26:35.532Z,101122.81
2022-10-22T19:29:04.143Z,101111.94
2022-10-22T19:31:32.250Z,101125.72
2022-10-22T19:34:01.721Z,101117.44
2022-10-22T19:36:32.644Z,101122.81
2022-10-22T19:39:00.740Z,101120.34
2022-10-22T19:41:30.570Z,101116.56
2022-10-22T19:44:00.936Z,101123.97
2022-10-22T19:46:30.298Z,101126.88
2022-10-22T19:48:58.325Z,101120.69
2022-10-22T19:51:29.729Z,101139.84
2022-10-22T19:54:00.939Z,101130.69
2022-10-22T19:56:29.802Z,101127.22
2022-10-22T19:58:57.825Z,101131.88
2022-10-22T20:01:26.532Z,101127.38
2022-10-22T20:03:54.830Z,101128.38
2022-10-22T20:06:22.882Z,101134.91
2022-10-22T20:08:53.779Z,101138.69
2022-10-22T20:11:27.414Z,101143.34
2022-10-22T20:13:56.649Z,101136.28
2022-10-22T20:16:28.582Z,101130.75
2022-10-22T20:19:00.842Z,101132.94
2022-10-22T20:21:29.229Z,101138.78
2022-10-22T20:23:57.605Z,101136.91
2022-10-22T20:26:28.982Z,101129.47
2022-10-22T20:28:57.982Z,101145.31
2022-10-22T20:31:28.374Z,101138.06
2022-10-22T20:33:57.695Z,101143.72
2022-10-22T20:36:26.071Z,101138.53
2022-10-22T20:38:53.910Z,101132.31
2022-10-22T20:41:23.485Z,101129.56
2022-10-22T20:43:53.026Z,101124.22
2022-10-22T20:46:23.163Z,101126.25
2022-10-22T20:48:53.165Z,101128.13
2022-10-22T20:51:21.177Z,101126.53
2022-10-22T20:53:49.121Z,101119.31
2022-10-22T20:56:17.873Z,101129.28
2022-10-22T20:58:48.569Z,101132.22
2022-10-22T21:01:21.874Z,101140.50
2022-10-22T21:03:50.737Z,101137.00
2022-10-22T21:06:20.890Z,101141.66
2022-10-22T21:08:49.049Z,101149.19
2022-10-22T21:11:17.102Z,101148.34
2022-10-22T21:13:45.180Z,101137.47
2022-10-22T21:16:14.677Z,101141.25
2022-10-22T21:18:43.903Z,101146.78
2022-10-22T21:21:11.741Z,101149.69
2022-10-22T21:23:40.239Z,101144.16
2022-10-22T21:26:08.069Z,101150.53
2022-10-22T21:28:37.196Z,101151.41
2022-10-22T21:31:06.479Z,101148.81
2022-10-22T21:33:37.035Z,101149.53
2022-10-22T21:36:07.348Z,101145.03
2022-10-22T21:38:35.925Z,101139.69
2022-10-22T21:41:06.299Z,101128.50
2022-10-22T21:43:34.205Z,101127.78
2022-10-22T21:46:08.050Z,101127.50
2022-10-22T21:48:36.831Z,101134.31
2022-10-22T21:51:09.957Z,101142.28
2022-10-22T21:53:38.495Z,101145.34
2022-10-22T21:56:07.493Z,101140.69
2022-10-22T21:58:35.941Z,101144.31
2022-10-22T22:01:04.604Z,101138.81
2022-10-22T22:03:33.220Z,101130.53
2022-10-22T22:06:02.003Z,101134.16
2022-10-22T22:08:32.511Z,101137.63
2022-10-22T22:11:03.750Z,101130.25
2022-10-22T22:13:32.113Z,101129.53
2022-10-22T22:16:04.542Z,101133.00
2022-10-22T22:18:33.671Z,101128.81
2022-10-22T22:21:04.488Z,101126.91
2022-10-22T22:23:34.688Z,101134.03
2022-10-22T22:26:02.967Z,101128.81
2022-10-22T22:28:32.248Z,101124.16
2022-10-22T22:31:00.295Z,101123.44
2022-10-22T22:33:28.827Z,101124.31
2022-10-22T22:35:59.980Z,101126.91
2022-10-22T22:38:28.096Z,101125.31
2022-10-22T22:40:59.773Z,101123.28
2022-10-22T22:43:27.741Z,101129.09
2022-10-22T22:46:00.399Z,101131.56
2022-10-22T22:48:28.296Z,101121.69
2022-10-22T22:50:56.030Z,101119.56
2022-10-22T22:53:23.921Z,101122.91
2022-10-22T22:55:51.653Z,101125.66
2022-10-22T22:58:20.895Z,101126.53
2022-10-22T23:00:48.646Z,101121.16
2022-10-22T23:03:16.452Z,101132.19
2022-10-22T23:05:44.189Z,101123.06
2022-10-22T23:08:12.018Z,101115.81
2022-10-22T23:10:39.780Z,101105.81
2022-10-22T23:13:07.599Z,101099.41
2022-10-22T23:15:40.287Z,101101.03
2022-10-22T23:18:07.893Z,101098.56
2022-10-22T23:20:38.651Z,101103.66
2022-10-22T23:23:06.808Z,101098.84
2022-10-22T23:25:34.576Z,101109.88
2022-10-22T23:28:02.373Z,101110.03
2022-10-22T23:30:30.119Z,101112.91
2022-10-22T23:32:59.298Z,101097.25
2022-10-22T23:35:27.042Z,101101.03
2022-10-22T23:37:54.836Z,101094.81
2022-10-22T23:40:22.614Z,101101.19
2022-10-22T23:42:50.880Z,101106.84
2022-10-22T23:45:18.856Z,101098.56
2022-10-22T23:47:46.676Z,101088.56
2022-10-22T23:50:16.011Z,101082.06
2022-10-22T23:52:44.133Z,101082.38
2022-10-22T23:55:12.192Z,101081.50
2022-10-22T23:57:40.007Z,101088.91
